createdAt,value
2023-09-01T00:01:04.487Z,16.00
2023-09-01T00:04:06.550Z,16.10
2023-09-01T00:07:08.544Z,16.10
2023-09-01T00:10:11.007Z,16.00
2023-09-01T00:13:12.971Z,16.00
2023-09-01T00:16:14.934Z,16.10
2023-09-01T00:19:16.815Z,16.10
2023-09-01T00:22:19.612Z,16.10
2023-09-01T00:25:21.441Z,16.00
2023-09-01T00:28:23.896Z,16.10
2023-09-01T00:31:25.806Z,16.10
2023-09-01T00:34:30.619Z,16.10
2023-09-01T00:37:32.782Z,16.00
2023-09-01T00:40:34.858Z,16.00
2023-09-01T00:43:36.900Z,16.10
2023-09-01T00:46:41.144Z,16.20
2023-09-01T00:49:48.825Z,16.10
2023-09-01T00:52:50.814Z,16.10
2023-09-01T00:55:58.532Z,16.10
2023-09-01T00:59:00.604Z,16.20
2023-09-01T01:02:03.272Z,16.10
2023-09-01T01:05:15.942Z,16.20
2023-09-01T01:08:53.675Z,16.20
2023-09-01T01:12:22.963Z,16.10
2023-09-01T01:15:26.448Z,16.10
2023-09-01T01:18:33.869Z,16.10
2023-09-01T01:21:39.409Z,16.10
2023-09-01T01:24:41.608Z,16.10
2023-09-01T01:27:44.520Z,16.20
2023-09-01T01:30:48.281Z,16.20
2023-09-01T01:34:03.444Z,16.20
2023-09-01T01:37:37.868Z,16.20
2023-09-01T01:40:41.407Z,16.20
2023-09-01T01:43:45.451Z,16.20
2023-09-01T01:46:48.909Z,16.20
2023-09-01T01:49:50.645Z,16.10
2023-09-01T01:52:53.711Z,16.10
2023-09-01T01:55:55.741Z,16.10
2023-09-01T01:58:57.914Z,16.10
2023-09-01T02:02:00.237Z,16.10
2023-09-01T02:05:02.291Z,16.00
2023-09-01T02:08:07.124Z,16.00
2023-09-01T02:11:09.219Z,16.00
2023-09-01T02:14:13.425Z,16.00
2023-09-01T02:17:15.300Z,16.10
2023-09-01T02:20:18.135Z,16.10
2023-09-01T02:23:20.269Z,16.10
2023-09-01T02:26:23.754Z,16.10
2023-09-01T02:29:25.806Z,16.20
2023-09-01T02:32:27.568Z,16.20
2023-09-01T02:35:30.143Z,16.30
2023-09-01T02:38:32.100Z,16.30
2023-09-01T02:41:34.358Z,16.30
2023-09-01T02:44:36.217Z,16.40
2023-09-01T02:47:41.712Z,16.40
2023-09-01T02:50:43.751Z,16.30
2023-09-01T02:53:45.604Z,16.40
2023-09-01T02:56:47.604Z,16.40
2023-09-01T02:59:49.510Z,16.40
2023-09-01T03:02:52.265Z,16.30
2023-09-01T03:05:54.338Z,16.30
2023-09-01T03:08:57.035Z,16.30
2023-09-01T03:11:58.786Z,16.30
2023-09-01T03:15:00.823Z,16.30
2023-09-01T03:18:03.756Z,16.30
2023-09-01T03:21:13.350Z,16.30
2023-09-01T03:24:15.603Z,16.30
2023-09-01T03:27:17.839Z,16.30
2023-09-01T03:30:20.521Z,16.30
2023-09-01T03:33:23.159Z,16.30
2023-09-01T03:36:25.583Z,16.30
2023-09-01T03:39:27.628Z,16.20
2023-09-01T03:42:29.516Z,16.20
2023-09-01T03:45:31.304Z,16.20
2023-09-01T03:48:33.435Z,16.20
2023-09-01T03:51:35.745Z,16.20
2023-09-01T03:54:37.545Z,16.20
2023-09-01T03:57:40.367Z,16.20
2023-09-01T04:00:42.240Z,16.20
2023-09-01T04:03:45.990Z,16.20
2023-09-01T04:06:48.077Z,16.20
2023-09-01T04:09:50.040Z,16.20
2023-09-01T04:12:52.020Z,16.30
2023-09-01T04:15:53.935Z,16.30
2023-09-01T04:18:56.331Z,16.30
2023-09-01T04:21:58.362Z,16.40
2023-09-01T04:25:00.551Z,16.40
2023-09-01T04:28:02.572Z,16.40
2023-09-01T04:31:28.183Z,16.40
2023-09-01T04:34:30.914Z,16.40
2023-09-01T04:37:32.907Z,16.40
2023-09-01T04:40:35.715Z,16.40
2023-09-01T04:43:37.488Z,16.40
2023-09-01T04:46:39.494Z,16.50
2023-09-01T04:49:41.518Z,16.50
2023-09-01T04:52:43.717Z,16.50
2023-09-01T04:55:45.647Z,16.50
2023-09-01T04:58:47.493Z,16.50
2023-09-01T05:01:50.560Z,16.50
2023-09-01T05:04:53.041Z,16.50
2023-09-01T05:07:57.941Z,16.50
2023-09-01T05:10:59.722Z,16.50
2023-09-01T05:14:01.584Z,16.50
2023-09-01T05:17:03.715Z,16.50
2023-09-01T05:20:10.845Z,16.50
2023-09-01T05:23:12.943Z,16.50
2023-09-01T05:26:15.279Z,16.40
2023-09-01T05:29:18.162Z,16.40
2023-09-01T05:32:21.671Z,16.50
2023-09-01T05:35:23.673Z,16.50
2023-09-01T05:38:25.793Z,16.50
2023-09-01T05:41:27.877Z,16.50
2023-09-01T05:44:30.164Z,16.50
2023-09-01T05:47:32.010Z,16.50
2023-09-01T05:50:34.223Z,16.50
2023-09-01T05:53:35.987Z,16.50
2023-09-01T05:56:37.932Z,16.50
2023-09-01T05:59:39.787Z,16.60
2023-09-01T06:02:41.793Z,16.60
2023-09-01T06:05:43.726Z,16.60
2023-09-01T06:08:46.591Z,16.60
2023-09-01T06:11:48.558Z,16.60
2023-09-01T06:14:50.706Z,16.60
2023-09-01T06:17:52.778Z,16.70
2023-09-01T06:20:54.614Z,16.70
2023-09-01T06:23:56.452Z,16.70
2023-09-01T06:26:58.775Z,16.80
2023-09-01T06:30:00.638Z,16.80
2023-09-01T06:33:02.861Z,16.80
2023-09-01T06:36:06.608Z,16.80
2023-09-01T06:39:08.738Z,16.90
2023-09-01T06:42:10.739Z,16.90
2023-09-01T06:45:12.616Z,16.90
2023-09-01T06:48:14.568Z,17.00
2023-09-01T06:51:16.860Z,17.00
2023-09-01T06:54:18.837Z,17.00
2023-09-01T06:57:20.725Z,17.00
2023-09-01T07:00:22.768Z,17.10
2023-09-01T07:03:24.585Z,17.10
2023-09-01T07:06:26.370Z,17.10
2023-09-01T07:09:28.247Z,17.10
2023-09-01T07:12:30.430Z,17.10
2023-09-01T07:15:32.318Z,17.20
2023-09-01T07:18:34.866Z,17.20
2023-09-01T07:21:36.721Z,17.20
2023-09-01T07:24:38.794Z,17.20
2023-09-01T07:27:41.255Z,17.20
2023-09-01T07:30:43.137Z,17.30
2023-09-01T07:33:45.074Z,17.30
2023-09-01T07:36:46.886Z,17.30
2023-09-01T07:39:48.717Z,17.40
2023-09-01T07:42:51.289Z,17.40
2023-09-01T07:45:53.120Z,17.40
2023-09-01T07:48:57.172Z,17.40
2023-09-01T07:51:58.970Z,17.40
2023-09-01T07:55:00.804Z,17.40
2023-09-01T07:58:02.927Z,17.40
2023-09-01T08:01:05.035Z,17.40
2023-09-01T08:04:08.555Z,17.40
2023-09-01T08:07:10.647Z,17.40
2023-09-01T08:10:12.810Z,17.40
2023-09-01T08:13:14.628Z,17.40
2023-09-01T08:16:19.580Z,17.40
2023-09-01T08:19:21.456Z,17.40
2023-09-01T08:22:23.525Z,17.50
2023-09-01T08:25:26.162Z,17.50
2023-09-01T08:28:28.312Z,17.50
2023-09-01T08:31:30.810Z,17.60
2023-09-01T08:34:33.138Z,17.60
2023-09-01T08:37:35.162Z,17.60
2023-09-01T08:40:37.066Z,17.50
2023-09-01T08:43:40.202Z,17.60
2023-09-01T08:46:54.342Z,17.60
2023-09-01T08:49:57.106Z,17.60
2023-09-01T08:53:03.265Z,17.60
2023-09-01T08:56:05.086Z,17.60
2023-09-01T08:59:07.135Z,17.70
2023-09-01T09:02:09.586Z,17.70
2023-09-01T09:05:14.429Z,17.70
2023-09-01T09:08:21.680Z,17.70
2023-09-01T09:11:23.869Z,17.70
2023-09-01T09:14:35.122Z,17.80
2023-09-01T09:17:46.745Z,17.80
2023-09-01T09:20:48.647Z,17.80
2023-09-01T09:23:50.671Z,17.90
2023-09-01T09:26:58.758Z,17.80
2023-09-01T09:30:01.062Z,17.90
2023-09-01T09:33:07.882Z,17.90
2023-09-01T09:36:10.119Z,17.90
2023-09-01T09:39:29.108Z,17.90
2023-09-01T09:42:40.259Z,17.90
2023-09-01T09:45:48.598Z,17.90
2023-09-01T09:48:51.375Z,17.90
2023-09-01T09:51:54.292Z,17.80
2023-09-01T09:55:13.046Z,17.80
2023-09-01T09:58:18.563Z,17.90
2023-09-01T10:05:47.720Z,18.00
2023-09-01T10:08:56.596Z,18.00
2023-09-01T10:16:59.253Z,18.00
2023-09-01T10:20:05.576Z,18.20
2023-09-01T10:23:12.957Z,18.20
2023-09-01T10:26:32.377Z,18.20
2023-09-01T10:30:02.037Z,18.30
2023-09-01T10:33:40.832Z,18.30
2023-09-01T10:36:45.784Z,18.30
2023-09-01T10:39:59.826Z,18.20
2023-09-01T10:43:02.262Z,18.20
2023-09-01T10:49:56.988Z,18.10
2023-09-01T10:53:33.217Z,17.80
2023-09-01T11:15:25.518Z,17.60
2023-09-01T11:19:37.612Z,17.50
2023-09-01T11:22:42.489Z,17.40
2023-09-01T11:26:17.037Z,17.40
2023-09-01T11:29:42.042Z,17.30
2023-09-01T11:32:43.956Z,17.40
2023-09-01T11:36:16.508Z,17.40
2023-09-01T12:09:22.677Z,17.60
2023-09-01T12:16:23.014Z,17.80
2023-09-01T12:36:27.176Z,18.30
2023-09-01T12:39:36.028Z,18.30
2023-09-01T12:42:38.248Z,18.50
2023-09-01T12:45:55.804Z,18.60
2023-09-01T12:48:58.193Z,18.70
2023-09-01T12:52:00.448Z,18.70
2023-09-01T12:55:02.234Z,18.90
2023-09-01T12:58:04.385Z,18.90
2023-09-01T13:01:07.394Z,19.00
2023-09-01T13:04:09.780Z,19.10
2023-09-01T13:07:16.289Z,19.20
2023-09-01T13:10:22.562Z,19.30
2023-09-01T13:13:24.663Z,19.30
2023-09-01T13:16:31.140Z,19.40
2023-09-01T13:19:32.960Z,19.40
2023-09-01T13:22:37.228Z,19.50
2023-09-01T13:25:40.389Z,19.50
2023-09-01T13:28:42.306Z,19.50
2023-09-01T13:31:44.174Z,19.60
2023-09-01T13:34:46.335Z,19.60
2023-09-01T13:37:48.416Z,19.60
2023-09-01T13:40:57.317Z,19.50
2023-09-01T13:43:59.273Z,19.40
2023-09-01T13:47:02.268Z,19.50
2023-09-01T13:50:04.779Z,19.50
2023-09-01T13:53:06.591Z,19.40
2023-09-01T13:56:08.466Z,19.40
2023-09-01T13:59:11.606Z,19.40
2023-09-01T14:02:13.402Z,19.50
2023-09-01T14:05:15.764Z,19.50
2023-09-01T14:08:17.903Z,19.60
2023-09-01T14:11:19.927Z,19.60
2023-09-01T14:14:22.304Z,19.60
2023-09-01T14:17:24.157Z,19.70
2023-09-01T14:20:27.970Z,19.80
2023-09-01T14:23:30.360Z,19.80
2023-09-01T14:26:32.903Z,19.80
2023-09-01T14:29:37.951Z,19.90
2023-09-01T14:32:39.836Z,20.00
2023-09-01T14:35:41.676Z,20.00
2023-09-01T14:38:43.599Z,20.10
2023-09-01T14:41:48.332Z,20.10
2023-09-01T14:44:50.383Z,20.00
2023-09-01T14:47:52.586Z,20.10
2023-09-01T14:50:54.365Z,20.10
2023-09-01T14:53:56.231Z,20.10
2023-09-01T14:56:57.983Z,20.10
2023-09-01T15:03:10.794Z,20.20
2023-09-01T15:06:12.814Z,20.20
2023-09-01T15:09:16.427Z,20.20
2023-09-01T15:12:18.590Z,20.30
2023-09-01T15:15:20.626Z,20.30
2023-09-01T15:18:22.409Z,20.30
2023-09-01T15:21:27.149Z,20.40
2023-09-01T15:24:29.118Z,20.40
2023-09-01T15:27:31.029Z,20.40
2023-09-01T15:30:33.622Z,20.50
2023-09-01T15:33:35.544Z,20.50
2023-09-01T15:36:44.008Z,20.50
2023-09-01T15:39:45.815Z,20.50
2023-09-01T15:42:47.634Z,20.50
2023-09-01T15:45:50.462Z,20.60
2023-09-01T15:48:52.361Z,20.60
2023-09-01T15:51:54.130Z,20.60
2023-09-01T15:54:56.085Z,20.50
2023-09-01T15:57:58.180Z,20.50
2023-09-01T16:01:14.286Z,20.40
2023-09-01T16:04:23.323Z,20.50
2023-09-01T16:07:25.230Z,20.50
2023-09-01T16:10:27.554Z,20.40
2023-09-01T16:13:29.720Z,20.40
2023-09-01T16:16:32.006Z,20.40
2023-09-01T16:19:33.839Z,20.40
2023-09-01T16:22:35.800Z,20.40
2023-09-01T16:25:37.759Z,20.40
2023-09-01T16:28:39.782Z,20.40
2023-09-01T16:31:41.750Z,20.40
2023-09-01T16:34:43.619Z,20.40
2023-09-01T16:37:46.415Z,20.30
2023-09-01T16:40:51.615Z,20.40
2023-09-01T16:43:53.716Z,20.30
2023-09-01T16:46:56.003Z,20.30
2023-09-01T16:49:57.965Z,20.40
2023-09-01T16:53:00.980Z,20.40
2023-09-01T16:56:02.883Z,20.40
2023-09-01T16:59:04.796Z,20.40
2023-09-01T17:02:07.347Z,20.40
2023-09-01T17:05:09.314Z,20.40
2023-09-01T17:08:11.239Z,20.40
2023-09-01T17:11:13.103Z,20.40
2023-09-01T17:14:15.114Z,20.40
2023-09-01T17:17:16.996Z,20.40
2023-09-01T17:20:20.072Z,20.40
2023-09-01T17:23:22.025Z,20.50
2023-09-01T17:26:23.919Z,20.40
2023-09-01T17:29:25.858Z,20.40
2023-09-01T17:32:30.827Z,20.30
2023-09-01T17:35:32.657Z,20.30
2023-09-01T17:38:34.449Z,20.20
2023-09-01T17:41:38.184Z,20.20
2023-09-01T17:44:41.581Z,20.20
2023-09-01T17:47:43.588Z,20.10
2023-09-01T17:50:45.842Z,20.10
2023-09-01T17:53:48.105Z,20.00
2023-09-01T17:56:50.069Z,20.00
2023-09-01T17:59:52.383Z,19.90
2023-09-01T18:02:57.633Z,19.90
2023-09-01T18:05:59.750Z,19.90
2023-09-01T18:09:01.852Z,19.80
2023-09-01T18:12:04.754Z,19.80
2023-09-01T18:15:07.308Z,19.80
2023-09-01T18:18:09.098Z,19.70
2023-09-01T18:21:12.799Z,19.70
2023-09-01T18:24:15.689Z,19.60
2023-09-01T18:27:28.195Z,19.60
2023-09-01T18:30:30.777Z,19.50
2023-09-01T18:33:35.112Z,19.50
2023-09-01T18:36:40.114Z,19.30
2023-09-01T18:39:52.747Z,19.30
2023-09-01T18:42:55.262Z,19.20
2023-09-01T18:45:57.318Z,19.20
2023-09-01T18:49:10.899Z,19.20
2023-09-01T18:52:12.977Z,19.20
2023-09-01T18:55:17.671Z,19.20
2023-09-01T18:58:19.788Z,19.20
2023-09-01T19:01:27.520Z,19.20
2023-09-01T19:04:29.620Z,19.10
2023-09-01T19:07:31.923Z,19.00
2023-09-01T19:10:35.133Z,19.00
2023-09-01T19:13:38.531Z,18.90
2023-09-01T19:16:41.402Z,18.80
2023-09-01T19:19:44.301Z,18.80
2023-09-01T19:22:46.205Z,18.80
2023-09-01T19:25:48.828Z,18.70
2023-09-01T19:28:51.528Z,18.70
2023-09-01T19:31:53.583Z,18.70
2023-09-01T19:34:58.419Z,18.60
2023-09-01T19:38:00.407Z,18.60
2023-09-01T19:41:02.197Z,18.50
2023-09-01T19:44:11.697Z,18.60
2023-09-01T19:47:23.892Z,18.50
2023-09-01T19:50:27.785Z,18.50
2023-09-01T19:53:31.487Z,18.50
2023-09-01T19:56:34.802Z,18.50
2023-09-01T19:59:36.753Z,18.50
2023-09-01T20:02:39.070Z,18.50
2023-09-01T20:05:42.375Z,18.50
2023-09-01T20:08:44.510Z,18.40
2023-09-01T20:11:46.776Z,18.40
2023-09-01T20:14:49.785Z,18.40
2023-09-01T20:17:53.861Z,18.30
2023-09-01T20:20:55.761Z,18.40
2023-09-01T20:23:57.580Z,18.40
2023-09-01T20:26:59.472Z,18.40
2023-09-01T20:30:01.258Z,18.40
2023-09-01T20:33:03.519Z,18.30
2023-09-01T20:36:05.716Z,18.30
2023-09-01T20:39:07.483Z,18.30
2023-09-01T20:42:10.987Z,18.30
2023-09-01T20:45:13.014Z,18.20
2023-09-01T20:48:14.906Z,18.20
2023-09-01T20:51:16.769Z,18.20
2023-09-01T20:54:19.201Z,18.20
2023-09-01T20:57:21.065Z,18.10
2023-09-01T21:00:27.094Z,18.10
2023-09-01T21:03:29.340Z,18.10
2023-09-01T21:06:31.091Z,18.10
2023-09-01T21:09:33.183Z,18.10
2023-09-01T21:12:35.644Z,18.10
2023-09-01T21:15:37.487Z,18.10
2023-09-01T21:18:39.361Z,18.00
2023-09-01T21:21:41.367Z,18.00
2023-09-01T21:24:43.387Z,18.10
2023-09-01T21:27:45.387Z,18.00
2023-09-01T21:30:50.309Z,18.00
2023-09-01T21:33:52.166Z,18.00
2023-09-01T21:36:54.518Z,18.00
2023-09-01T21:39:56.615Z,18.00
2023-09-01T21:42:58.394Z,18.00
2023-09-01T21:46:00.360Z,18.00
2023-09-01T21:49:02.402Z,18.00
2023-09-01T21:52:04.648Z,18.00
2023-09-01T21:55:07.141Z,18.00
2023-09-01T21:58:09.060Z,18.00
2023-09-01T22:01:11.503Z,18.00
2023-09-01T22:04:13.505Z,18.00
2023-09-01T22:07:15.279Z,18.00
2023-09-01T22:10:17.204Z,18.00
2023-09-01T22:13:19.182Z,18.00
2023-09-01T22:16:22.170Z,18.00
2023-09-01T22:19:23.971Z,18.00
2023-09-01T22:22:26.104Z,18.00
2023-09-01T22:25:27.884Z,17.90
2023-09-01T22:28:29.963Z,17.90
2023-09-01T22:31:32.093Z,17.90
2023-09-01T22:34:33.891Z,17.80
2023-09-01T22:37:36.140Z,17.80
2023-09-01T22:40:37.929Z,17.80
2023-09-01T22:43:41.337Z,17.80
2023-09-01T22:46:43.057Z,17.80
2023-09-01T22:49:44.902Z,17.70
2023-09-01T22:52:47.110Z,17.70
2023-09-01T22:55:48.933Z,17.60
2023-09-01T22:58:50.807Z,17.70
2023-09-01T23:01:52.787Z,17.60
2023-09-01T23:04:56.091Z,17.60
2023-09-01T23:08:00.954Z,17.60
2023-09-01T23:11:03.777Z,17.60
2023-09-01T23:14:05.657Z,17.60
2023-09-01T23:17:07.415Z,17.50
2023-09-01T23:20:09.677Z,17.50
2023-09-01T23:23:11.671Z,17.50
2023-09-01T23:26:13.721Z,17.40
2023-09-01T23:29:18.621Z,17.50
2023-09-01T23:32:20.535Z,17.40
2023-09-01T23:35:22.433Z,17.40
2023-09-01T23:38:24.366Z,17.50
2023-09-01T23:41:26.129Z,17.50
2023-09-01T23:44:28.285Z,17.40
2023-09-01T23:47:30.422Z,17.50
2023-09-01T23:50:32.247Z,17.50
2023-09-01T23:53:34.062Z,17.60
2023-09-01T23:56:35.838Z,17.60
2023-09-01T23:59:37.894Z,17.60
